Pond Inlet Airport

Airport
ICAO code: 
CYIO
Summary
ICAO Region: 
NAM
Territory: 
Location: 
Pond Inlet, Nunavut,
Coordinates: 
Aerial View: 
72° 42' 0.421" N, 77° 57' 30.714" W
Airport BS: 
Non Avian Wildlife Hazards to Aircraft
Airport CFIT: 
Altimeter Temperature Error Correction
Airport GND: 
Aircraft Ground De/Anti Icing
Airport WX: 
Fog
Metar
Observation
CYIO 271200Z AUTO 17005KT 9SM -SN OVC023 M16/M18 A3016 RMK SLP224
Station
Pond Inlet, N. W. T.
Date/Time
2021-11-27 12:00:00
Wind direction
170°
Wind speed
05 kts
Lowest cloud amount
overcast
Temperature
-16°C
Dew point
-18°C
Humidity
84%
Weather condition
light snow

Description

Airport serving Pond Inlet, Nunavut, Canada, operated by the government of Nunavut

Climatology

Tundra climate (Köppen climate classification ET) - warmest month has an average temperature of 0 - 10 degrees C.

Runways

Designator Length Width Surface Rops
02T/20T 1219 30 GVL No/No
Airport map: 
Aerial View: 

SKYbrary Partners:

Safety knowledge contributed by: